createdAt,value
2022-08-01T00:00:10.049Z,75638.25
2022-08-01T00:02:57.196Z,75640.28
2022-08-01T00:05:24.545Z,75644.34
2022-08-01T00:07:51.478Z,75640.28
2022-08-01T00:10:18.701Z,75632.19
2022-08-01T00:12:46.711Z,75644.34
2022-08-01T00:15:16.096Z,75648.41
2022-08-01T00:17:43.933Z,75648.41
2022-08-01T00:20:13.042Z,75640.28
2022-08-01T00:22:40.174Z,75632.19
2022-08-01T00:25:07.759Z,75640.28
2022-08-01T00:27:37.566Z,75642.31
2022-08-01T00:30:10.687Z,75638.25
2022-08-01T00:32:40.529Z,75624.06
2022-08-01T00:35:08.041Z,75628.13
2022-08-01T00:37:34.888Z,75632.19
2022-08-01T00:40:02.091Z,75636.22
2022-08-01T00:42:28.932Z,75642.31
2022-08-01T00:44:55.714Z,75644.34
2022-08-01T00:47:22.745Z,75648.41
2022-08-01T00:49:49.665Z,75644.34
2022-08-01T00:52:16.532Z,75640.28
2022-08-01T00:54:44.324Z,75648.41
2022-08-01T00:57:11.616Z,75644.34
2022-08-01T00:59:41.447Z,75656.50
2022-08-01T01:02:15.042Z,75648.41
2022-08-01T01:04:43.876Z,75644.34
2022-08-01T01:07:35.834Z,75648.41
2022-08-01T01:10:16.477Z,75648.41
2022-08-01T01:13:07.711Z,75652.44
2022-08-01T01:15:40.578Z,75654.47
2022-08-01T01:18:15.670Z,75656.50
2022-08-01T01:20:46.762Z,75656.50
2022-08-01T01:24:01.952Z,75656.50
2022-08-01T01:26:56.730Z,75660.56
2022-08-01T01:30:00.558Z,75660.56
2022-08-01T01:32:51.031Z,75662.59
2022-08-01T01:35:24.622Z,75662.59
2022-08-01T01:37:59.182Z,75664.59
2022-08-01T01:40:27.239Z,75666.63
2022-08-01T01:42:56.894Z,75672.72
2022-08-01T01:45:27.349Z,75676.75
2022-08-01T01:47:57.169Z,75680.81
2022-08-01T01:50:24.950Z,75686.91
2022-08-01T01:52:53.155Z,75684.88
2022-08-01T01:55:23.146Z,75697.03
2022-08-01T01:57:52.443Z,75699.06
2022-08-01T02:00:19.812Z,75703.13
2022-08-01T02:02:47.292Z,75697.03
2022-08-01T02:05:15.035Z,75705.13
2022-08-01T02:07:43.720Z,75709.19
2022-08-01T02:10:12.150Z,75705.13
2022-08-01T02:12:42.449Z,75713.25
2022-08-01T02:15:10.590Z,75717.28
2022-08-01T02:17:42.870Z,75713.25
2022-08-01T02:20:10.705Z,75719.31
2022-08-01T02:22:43.055Z,75729.47
2022-08-01T02:25:24.912Z,75731.47
2022-08-01T02:28:14.073Z,75729.47
2022-08-01T02:30:47.127Z,75733.50
2022-08-01T02:33:24.503Z,75749.72
2022-08-01T02:36:29.705Z,75753.78
2022-08-01T02:38:46.862Z,75757.81
2022-08-01T02:41:20.100Z,75749.72
2022-08-01T02:43:53.213Z,75765.94
2022-08-01T02:46:44.430Z,75765.94
2022-08-01T02:49:13.904Z,75772.00
2022-08-01T02:51:42.006Z,75774.03
2022-08-01T02:54:11.125Z,75776.06
2022-08-01T02:56:39.286Z,75776.06
2022-08-01T02:59:14.423Z,75782.16
2022-08-01T03:01:46.134Z,75782.16
2022-08-01T03:04:14.123Z,75790.25
2022-08-01T03:06:42.691Z,75790.25
2022-08-01T03:09:14.000Z,75798.38
2022-08-01T03:11:45.080Z,75800.38
2022-08-01T03:14:13.856Z,75802.41
2022-08-01T03:16:43.492Z,75806.47
2022-08-01T03:19:12.637Z,75806.47
2022-08-01T03:21:41.792Z,75806.47
2022-08-01T03:24:10.879Z,75806.47
2022-08-01T03:26:40.452Z,75808.50
2022-08-01T03:29:13.614Z,75802.41
2022-08-01T03:31:44.996Z,75806.47
2022-08-01T03:34:12.436Z,75810.53
2022-08-01T03:36:49.960Z,75804.44
2022-08-01T03:39:19.669Z,75806.47
2022-08-01T03:42:02.546Z,75806.47
2022-08-01T03:44:34.282Z,75810.53
2022-08-01T03:47:03.435Z,75810.53
2022-08-01T03:49:36.172Z,75806.47
2022-08-01T03:52:05.885Z,75802.41
2022-08-01T03:54:36.789Z,75806.47
2022-08-01T03:57:04.950Z,75806.47
2022-08-01T03:59:32.897Z,75804.44
2022-08-01T04:02:00.539Z,75806.47
2022-08-01T04:04:27.572Z,75802.41
2022-08-01T04:06:55.320Z,75802.41
2022-08-01T04:09:23.074Z,75798.38
2022-08-01T04:11:49.938Z,75798.38
2022-08-01T04:14:17.186Z,75790.25
2022-08-01T04:16:44.517Z,75782.16
2022-08-01T04:19:12.694Z,75790.25
2022-08-01T04:21:39.653Z,75782.16
2022-08-01T04:24:13.288Z,75784.19
2022-08-01T04:26:42.421Z,75782.16
2022-08-01T04:29:11.779Z,75778.09
2022-08-01T04:31:43.053Z,75774.03
2022-08-01T04:34:13.040Z,75774.03
2022-08-01T04:36:43.061Z,75770.00
2022-08-01T04:39:11.611Z,75770.00
2022-08-01T04:41:39.845Z,75770.00
2022-08-01T04:44:07.826Z,75765.94
2022-08-01T04:46:35.641Z,75753.78
2022-08-01T04:49:03.991Z,75753.78
2022-08-01T04:51:31.019Z,75749.72
2022-08-01T04:53:59.308Z,75745.66
2022-08-01T04:56:26.316Z,75737.56
2022-08-01T04:59:19.633Z,75739.59
2022-08-01T05:01:51.587Z,75739.59
2022-08-01T05:04:18.744Z,75749.72
2022-08-01T05:06:45.552Z,75757.81
2022-08-01T05:09:12.595Z,75761.88
2022-08-01T05:11:39.379Z,75765.94
2022-08-01T05:14:07.653Z,75770.00
2022-08-01T05:16:34.724Z,75772.00
2022-08-01T05:19:03.716Z,75774.03
2022-08-01T05:21:30.554Z,75784.19
2022-08-01T05:23:58.985Z,75790.25
2022-08-01T05:26:26.037Z,75800.38
2022-08-01T05:28:53.387Z,75798.38
2022-08-01T05:31:20.480Z,75802.41
2022-08-01T05:33:47.518Z,75806.47
2022-08-01T05:36:14.352Z,75806.47
2022-08-01T05:38:41.431Z,75794.31
2022-08-01T05:41:08.405Z,75786.19
2022-08-01T05:43:35.361Z,75776.06
2022-08-01T05:46:02.627Z,75753.78
2022-08-01T05:48:29.707Z,75747.69
2022-08-01T05:50:58.571Z,75723.38
2022-08-01T05:53:26.807Z,75715.28
2022-08-01T05:55:53.722Z,75705.13
2022-08-01T05:58:20.588Z,75701.09
2022-08-01T06:00:47.613Z,75688.94
2022-08-01T06:03:15.417Z,75682.84
2022-08-01T06:05:42.516Z,75676.75
2022-08-01T06:08:09.494Z,75660.56
2022-08-01T06:10:36.607Z,75656.50
2022-08-01T06:13:04.144Z,75648.41
2022-08-01T06:15:32.457Z,75652.44
2022-08-01T06:18:00.178Z,75648.41
2022-08-01T06:20:27.608Z,75636.22
2022-08-01T06:22:55.564Z,75630.16
2022-08-01T06:25:23.324Z,75624.06
2022-08-01T06:27:50.869Z,75603.81
2022-08-01T06:30:18.262Z,75591.66
2022-08-01T06:32:45.074Z,75583.53
2022-08-01T06:35:12.268Z,75575.44
2022-08-01T06:37:39.525Z,75573.41
2022-08-01T06:40:16.615Z,75567.34
2022-08-01T06:42:46.778Z,75555.19
2022-08-01T06:45:15.138Z,75551.13
2022-08-01T06:47:43.750Z,75541.00
2022-08-01T06:50:11.801Z,75532.88
2022-08-01T06:52:39.093Z,75526.81
2022-08-01T06:55:06.450Z,75518.69
2022-08-01T06:57:33.911Z,75510.59
2022-08-01T07:00:09.838Z,75498.44
2022-08-01T07:02:37.883Z,75494.38
2022-08-01T07:05:05.414Z,75482.22
2022-08-01T07:07:32.466Z,75463.97
2022-08-01T07:09:59.503Z,75449.81
2022-08-01T07:12:26.380Z,75435.63
2022-08-01T07:14:53.311Z,75427.50
2022-08-01T07:17:21.939Z,75417.38
2022-08-01T07:19:49.302Z,75393.06
2022-08-01T07:22:23.217Z,75395.09
2022-08-01T07:24:54.603Z,75399.13
2022-08-01T07:27:25.854Z,75393.06
2022-08-01T07:29:53.869Z,75391.03
2022-08-01T07:32:20.942Z,75360.63
2022-08-01T07:34:47.911Z,75352.53
2022-08-01T07:37:15.134Z,75338.34
2022-08-01T07:39:42.448Z,75324.16
2022-08-01T07:42:09.790Z,75320.13
2022-08-01T07:44:37.510Z,75336.31
2022-08-01T07:47:06.146Z,75328.22
2022-08-01T07:49:37.736Z,75332.28
2022-08-01T07:52:07.489Z,75299.84
2022-08-01T07:54:35.011Z,75287.69
2022-08-01T07:57:03.549Z,75279.59
2022-08-01T07:59:30.983Z,75267.44
2022-08-01T08:01:58.448Z,75257.28
2022-08-01T08:04:26.373Z,75253.25
2022-08-01T08:06:54.567Z,75247.16
2022-08-01T08:09:21.906Z,75259.31
2022-08-01T08:11:48.901Z,75263.38
2022-08-01T08:14:17.298Z,75261.34
2022-08-01T08:16:44.906Z,75251.22
2022-08-01T08:19:12.603Z,75243.09
2022-08-01T08:21:39.941Z,75235.00
2022-08-01T08:24:25.859Z,75210.69
2022-08-01T08:27:01.836Z,75218.78
2022-08-01T08:29:30.975Z,75218.78
2022-08-01T08:31:59.387Z,75218.78
2022-08-01T08:34:28.307Z,75198.53
2022-08-01T08:36:57.071Z,75196.50
2022-08-01T08:39:27.059Z,75186.38
2022-08-01T08:41:54.171Z,75178.28
2022-08-01T08:44:21.241Z,75190.44
2022-08-01T08:46:51.950Z,75182.31
2022-08-01T08:49:25.423Z,75186.38
2022-08-01T08:51:53.929Z,75166.09
2022-08-01T08:54:30.945Z,75149.91
2022-08-01T08:57:01.251Z,75162.06
2022-08-01T08:59:29.475Z,75153.94
2022-08-01T09:01:57.729Z,75149.91
2022-08-01T09:04:26.972Z,75151.94
2022-08-01T09:06:55.253Z,75141.78
2022-08-01T09:09:23.441Z,75141.78
2022-08-01T09:11:57.313Z,75121.53
2022-08-01T09:14:30.910Z,75129.63
2022-08-01T09:17:07.714Z,75123.56
2022-08-01T09:19:41.607Z,75117.47
2022-08-01T09:22:12.882Z,75091.13
2022-08-01T09:24:41.590Z,75095.19
2022-08-01T09:27:25.139Z,75113.44
2022-08-01T09:30:00.184Z,75113.44
2022-08-01T09:32:35.186Z,75109.38
2022-08-01T09:35:24.513Z,75099.25
2022-08-01T09:38:33.624Z,75068.84
2022-08-01T09:41:02.318Z,75066.81
2022-08-01T09:43:32.047Z,75064.81
2022-08-01T09:46:05.949Z,75048.59
2022-08-01T09:48:33.731Z,75050.63
2022-08-01T09:51:03.929Z,75044.53
2022-08-01T09:53:51.883Z,75038.47
2022-08-01T09:56:21.870Z,75038.47
2022-08-01T09:58:59.325Z,75036.44
2022-08-01T10:01:37.174Z,75022.25
2022-08-01T10:04:13.647Z,75020.22
2022-08-01T10:06:50.866Z,75016.16
2022-08-01T10:09:39.643Z,75008.06
2022-08-01T10:12:08.718Z,75004.00
2022-08-01T10:14:37.704Z,74997.94
2022-08-01T10:17:09.370Z,74991.84
2022-08-01T10:19:46.914Z,74991.84
2022-08-01T10:22:17.797Z,74991.84
2022-08-01T10:24:47.497Z,74965.53
2022-08-01T10:27:21.494Z,74963.50
2022-08-01T10:30:15.500Z,74963.50
2022-08-01T10:32:50.603Z,74957.41
2022-08-01T10:35:45.923Z,74951.34
2022-08-01T10:38:06.652Z,74943.22
2022-08-01T10:40:43.013Z,74929.03
2022-08-01T10:43:21.676Z,74914.88
2022-08-01T10:45:50.564Z,74914.88
2022-08-01T10:48:29.836Z,74904.72
2022-08-01T10:51:00.304Z,74874.34
2022-08-01T10:53:31.854Z,74862.19
2022-08-01T10:56:12.699Z,74854.09
2022-08-01T10:58:44.140Z,74833.81
2022-08-01T11:01:27.991Z,74841.94
2022-08-01T11:04:17.650Z,74852.06
2022-08-01T11:07:17.302Z,74845.97
2022-08-01T11:10:03.518Z,74825.72
2022-08-01T11:12:41.466Z,74817.63
2022-08-01T11:15:11.254Z,74813.56
2022-08-01T11:17:48.516Z,74805.47
2022-08-01T11:20:18.135Z,74789.25
2022-08-01T11:23:05.138Z,74777.09
2022-08-01T11:26:03.267Z,74785.19
2022-08-01T11:28:32.442Z,74785.19
2022-08-01T11:31:11.046Z,74769.00
2022-08-01T11:33:40.480Z,74744.69
2022-08-01T11:36:14.860Z,74750.75
2022-08-01T11:38:49.736Z,74746.69
2022-08-01T11:41:38.602Z,74756.84
2022-08-01T11:44:26.269Z,74736.56
2022-08-01T11:47:07.125Z,74732.53
2022-08-01T11:49:38.722Z,74712.25
2022-08-01T11:52:13.927Z,74704.16
2022-08-01T11:54:52.662Z,74708.22
2022-08-01T11:57:23.242Z,74728.47
2022-08-01T12:00:02.310Z,74732.53
2022-08-01T12:02:39.679Z,74716.31
2022-08-01T12:05:15.792Z,74704.16
2022-08-01T12:07:45.976Z,74700.09
2022-08-01T12:10:18.176Z,74685.91
2022-08-01T12:12:53.210Z,74683.91
2022-08-01T12:15:23.695Z,74667.69
2022-08-01T12:18:07.875Z,74651.47
2022-08-01T12:20:55.773Z,74631.22
2022-08-01T12:23:24.661Z,74623.13
2022-08-01T12:25:54.909Z,74598.81
2022-08-01T12:28:22.326Z,74606.91
2022-08-01T12:30:50.614Z,74610.97
2022-08-01T12:33:21.754Z,74623.13
2022-08-01T12:35:48.919Z,74631.22
2022-08-01T12:38:23.711Z,74619.06
2022-08-01T12:40:53.353Z,74606.91
2022-08-01T12:43:27.972Z,74594.75
2022-08-01T12:45:59.395Z,74570.44
2022-08-01T12:48:27.527Z,74564.38
2022-08-01T12:50:58.684Z,74562.34
2022-08-01T12:53:26.946Z,74562.34
2022-08-01T12:56:07.077Z,74558.28
2022-08-01T12:58:34.986Z,74546.13
2022-08-01T13:01:07.933Z,74531.94
2022-08-01T13:03:36.014Z,74529.94
2022-08-01T13:06:11.983Z,74523.84
2022-08-01T13:08:39.651Z,74521.81
2022-08-01T13:11:15.650Z,74513.72
2022-08-01T13:13:48.415Z,74507.63
2022-08-01T13:16:30.636Z,74509.66
2022-08-01T13:19:06.680Z,74509.66
2022-08-01T13:21:52.271Z,74505.63
2022-08-01T13:24:29.111Z,74493.47
2022-08-01T13:27:04.934Z,74489.41
2022-08-01T13:29:43.908Z,74489.41
2022-08-01T13:32:29.682Z,74497.50
2022-08-01T13:35:06.269Z,74493.47
2022-08-01T13:37:33.124Z,74513.72
2022-08-01T13:40:00.423Z,74529.94
2022-08-01T13:42:27.296Z,74542.09
2022-08-01T13:44:54.156Z,74554.22
2022-08-01T13:47:31.192Z,74552.22
2022-08-01T13:50:03.295Z,74529.94
2022-08-01T13:52:31.695Z,74501.56
2022-08-01T13:54:59.311Z,74469.16
2022-08-01T13:57:26.124Z,74444.84
2022-08-01T14:00:09.662Z,74416.47
2022-08-01T14:02:39.429Z,74428.63
2022-08-01T14:05:07.026Z,74416.47
2022-08-01T14:07:33.863Z,74404.31
2022-08-01T14:10:17.648Z,74408.38
2022-08-01T14:12:50.878Z,74392.16
2022-08-01T14:15:36.908Z,74380.00
2022-08-01T14:18:07.475Z,74371.91
2022-08-01T14:20:35.494Z,74359.75
2022-08-01T14:23:02.887Z,74341.53
2022-08-01T14:26:03.570Z,74343.56
2022-08-01T14:28:17.524Z,74363.81
2022-08-01T14:30:44.909Z,74380.00
2022-08-01T14:33:13.319Z,74367.84
2022-08-01T14:36:02.170Z,74359.75
2022-08-01T14:38:31.602Z,74343.56
2022-08-01T14:41:01.651Z,74351.66
2022-08-01T14:43:33.151Z,74388.13
2022-08-01T14:46:01.856Z,74400.28
2022-08-01T14:48:30.115Z,74418.50
2022-08-01T14:50:58.606Z,74422.56
2022-08-01T14:53:25.966Z,74422.56
2022-08-01T14:55:52.965Z,74404.31
2022-08-01T14:58:19.922Z,74371.91
2022-08-01T15:00:47.090Z,74307.09
2022-08-01T15:03:14.103Z,74222.00
2022-08-01T15:05:41.202Z,74138.94
2022-08-01T15:08:08.344Z,74197.69
2022-08-01T15:10:35.613Z,74055.91
2022-08-01T15:13:02.766Z,74039.69
2022-08-01T15:15:30.731Z,74045.78
2022-08-01T15:17:57.980Z,73877.66
2022-08-01T15:20:24.900Z,73691.31
2022-08-01T15:22:52.007Z,73504.97
2022-08-01T15:25:19.196Z,73610.28
2022-08-01T15:27:46.145Z,73563.72
2022-08-01T15:30:13.503Z,73533.34
2022-08-01T15:32:40.522Z,73695.38
2022-08-01T15:35:08.357Z,73784.47
2022-08-01T15:37:40.860Z,73723.72
2022-08-01T15:40:11.633Z,73750.06
2022-08-01T15:42:39.227Z,73626.50
2022-08-01T15:45:10.583Z,73618.41
2022-08-01T15:47:40.511Z,73735.88
2022-08-01T15:50:07.942Z,73739.91
2022-08-01T15:52:35.365Z,73644.72
2022-08-01T15:55:02.845Z,73565.75
2022-08-01T15:57:29.890Z,73484.72
2022-08-01T15:59:56.781Z,73444.22
2022-08-01T16:02:24.134Z,73553.59
2022-08-01T16:04:51.295Z,73719.66
2022-08-01T16:07:18.400Z,73861.44
2022-08-01T16:09:46.864Z,74029.56
2022-08-01T16:12:13.781Z,74193.66
2022-08-01T16:14:40.629Z,74282.78
2022-08-01T16:17:08.141Z,74347.59
2022-08-01T16:19:35.362Z,74406.34
2022-08-01T16:22:02.309Z,74428.63
2022-08-01T16:24:31.080Z,74452.94
2022-08-01T16:26:58.482Z,74469.16
2022-08-01T16:29:30.669Z,74487.38
2022-08-01T16:32:01.606Z,74509.66
2022-08-01T16:34:29.948Z,74546.13
2022-08-01T16:36:57.552Z,74574.50
2022-08-01T16:39:24.743Z,74586.66
2022-08-01T16:41:55.146Z,74598.81
2022-08-01T16:44:33.190Z,74613.00
2022-08-01T16:47:03.053Z,74610.97
2022-08-01T16:49:31.982Z,74619.06
2022-08-01T16:51:59.048Z,74619.06
2022-08-01T16:54:26.562Z,74606.91
2022-08-01T16:56:54.545Z,74623.13
2022-08-01T16:59:24.159Z,74629.19
2022-08-01T17:01:58.346Z,74631.22
2022-08-01T17:04:29.003Z,74635.28
2022-08-01T17:06:56.457Z,74639.31
2022-08-01T17:09:23.467Z,74653.50
2022-08-01T17:11:50.358Z,74659.59
2022-08-01T17:14:18.011Z,74663.63
2022-08-01T17:16:45.455Z,74667.69
2022-08-01T17:19:14.824Z,74681.88
2022-08-01T17:21:42.898Z,74687.94
2022-08-01T17:24:09.959Z,74700.09
2022-08-01T17:26:38.583Z,74689.97
2022-08-01T17:29:05.624Z,74687.94
2022-08-01T17:31:33.148Z,74700.09
2022-08-01T17:34:00.030Z,74716.31
2022-08-01T17:36:27.025Z,74736.56
2022-08-01T17:38:53.950Z,74736.56
2022-08-01T17:41:20.812Z,74732.53
2022-08-01T17:43:48.162Z,74740.63
2022-08-01T17:46:15.201Z,74752.78
2022-08-01T17:48:45.727Z,74744.69
2022-08-01T17:51:20.711Z,74748.72
2022-08-01T17:53:55.796Z,74754.81
2022-08-01T17:56:26.624Z,74756.84
2022-08-01T17:58:55.193Z,74764.94
2022-08-01T18:01:26.499Z,74773.03
2022-08-01T18:03:54.513Z,74773.03
2022-08-01T18:06:23.546Z,74777.09
2022-08-01T18:08:55.604Z,74785.19
2022-08-01T18:11:24.652Z,74793.31
2022-08-01T18:13:51.886Z,74799.38
2022-08-01T18:16:19.103Z,74801.41
2022-08-01T18:18:46.275Z,74807.47
2022-08-01T18:21:13.134Z,74805.47
2022-08-01T18:23:40.525Z,74809.50
2022-08-01T18:26:18.076Z,74813.56
2022-08-01T18:28:46.604Z,74819.63
2022-08-01T18:31:16.948Z,74825.72
2022-08-01T18:33:45.364Z,74833.81
2022-08-01T18:36:31.443Z,74850.03
2022-08-01T18:39:01.729Z,74862.19
2022-08-01T18:41:28.948Z,74870.28
2022-08-01T18:44:08.015Z,74874.34
2022-08-01T18:46:37.594Z,74870.28
2022-08-01T18:49:05.789Z,74876.38
2022-08-01T18:51:32.918Z,74874.34
2022-08-01T18:54:00.216Z,74882.44
2022-08-01T18:56:27.116Z,74878.41
2022-08-01T18:58:55.050Z,74882.44
2022-08-01T19:01:22.895Z,74894.59
2022-08-01T19:03:50.273Z,74898.66
2022-08-01T19:06:17.259Z,74910.81
2022-08-01T19:08:46.009Z,74906.75
2022-08-01T19:11:13.286Z,74910.81
2022-08-01T19:13:40.502Z,74922.97
2022-08-01T19:16:07.586Z,74927.03
2022-08-01T19:18:34.955Z,74931.06
2022-08-01T19:21:04.524Z,74943.22
2022-08-01T19:23:50.313Z,74939.19
2022-08-01T19:26:25.895Z,74953.38
2022-08-01T19:28:57.659Z,74947.28
2022-08-01T19:31:27.944Z,74955.38
2022-08-01T19:33:57.483Z,74957.41
2022-08-01T19:36:24.578Z,74959.44
2022-08-01T19:38:51.494Z,74959.44
2022-08-01T19:41:19.374Z,74967.53
2022-08-01T19:43:48.166Z,74967.53
2022-08-01T19:46:18.031Z,74969.56
2022-08-01T19:48:51.460Z,74965.53
2022-08-01T19:51:22.294Z,74963.50
2022-08-01T19:53:55.157Z,74963.50
2022-08-01T19:56:25.919Z,74971.59
2022-08-01T19:58:59.458Z,74971.59
2022-08-01T20:01:27.584Z,74971.59
2022-08-01T20:03:55.964Z,74975.66
2022-08-01T20:06:26.150Z,74983.75
2022-08-01T20:08:54.755Z,74987.81
2022-08-01T20:11:23.447Z,74989.84
2022-08-01T20:13:52.006Z,74995.91
2022-08-01T20:16:18.996Z,75002.00
2022-08-01T20:18:47.161Z,75012.13
2022-08-01T20:21:14.732Z,75012.13
2022-08-01T20:23:44.232Z,75020.22
2022-08-01T20:26:15.793Z,75016.16
2022-08-01T20:28:46.464Z,75024.28
2022-08-01T20:31:14.838Z,75026.31
2022-08-01T20:33:44.497Z,75028.31
2022-08-01T20:36:25.725Z,75024.28
2022-08-01T20:38:55.256Z,75028.31
2022-08-01T20:41:25.347Z,75028.31
2022-08-01T20:43:57.327Z,75032.38
2022-08-01T20:46:28.518Z,75028.31
2022-08-01T20:48:57.786Z,75032.38
2022-08-01T20:51:29.032Z,75032.38
2022-08-01T20:53:56.488Z,75032.38
2022-08-01T20:56:38.572Z,75036.44
2022-08-01T20:59:54.656Z,75042.50
2022-08-01T21:02:41.675Z,75044.53
2022-08-01T21:05:11.432Z,75042.50
2022-08-01T21:07:43.060Z,75032.38
2022-08-01T21:10:15.520Z,75038.47
2022-08-01T21:12:43.796Z,75036.44
2022-08-01T21:15:29.470Z,75036.44
2022-08-01T21:18:03.578Z,75042.50
2022-08-01T21:20:36.799Z,75040.47
2022-08-01T21:23:22.208Z,75044.53
2022-08-01T21:25:49.337Z,75048.59
2022-08-01T21:28:16.240Z,75044.53
2022-08-01T21:30:53.731Z,75056.69
2022-08-01T21:33:26.414Z,75060.75
2022-08-01T21:36:02.617Z,75062.78
2022-08-01T21:38:35.762Z,75060.75
2022-08-01T21:41:04.548Z,75064.81
2022-08-01T21:43:33.218Z,75068.84
2022-08-01T21:46:01.169Z,75064.81
2022-08-01T21:48:30.737Z,75072.91
2022-08-01T21:51:00.312Z,75081.00
2022-08-01T21:53:41.187Z,75081.00
2022-08-01T21:56:34.031Z,75081.00
2022-08-01T21:59:30.951Z,75078.97
2022-08-01T22:02:08.546Z,75081.00
2022-08-01T22:04:45.290Z,75085.06
2022-08-01T22:07:15.041Z,75085.06
2022-08-01T22:09:46.241Z,75085.06
2022-08-01T22:12:17.877Z,75093.16
2022-08-01T22:14:48.558Z,75097.22
2022-08-01T22:17:24.424Z,75105.31
2022-08-01T22:19:55.286Z,75105.31
2022-08-01T22:22:45.310Z,75109.38
2022-08-01T22:25:11.972Z,75113.44
2022-08-01T22:28:06.130Z,75113.44
2022-08-01T22:30:29.453Z,75117.47
2022-08-01T22:33:07.566Z,75129.63
2022-08-01T22:35:46.686Z,75133.69
2022-08-01T22:38:14.125Z,75137.75
2022-08-01T22:40:50.148Z,75137.75
2022-08-01T22:43:46.709Z,75137.75
2022-08-01T22:46:29.419Z,75141.78
2022-08-01T22:49:24.154Z,75141.78
2022-08-01T22:52:14.174Z,75139.78
2022-08-01T22:54:49.009Z,75145.84
2022-08-01T22:57:31.331Z,75149.91
2022-08-01T23:00:05.765Z,75145.84
2022-08-01T23:02:36.577Z,75145.84
2022-08-01T23:05:08.242Z,75153.94
2022-08-01T23:07:48.650Z,75158.00
2022-08-01T23:10:16.080Z,75153.94
2022-08-01T23:12:44.585Z,75162.06
2022-08-01T23:15:11.967Z,75155.97
2022-08-01T23:17:42.400Z,75164.09
2022-08-01T23:20:10.002Z,75162.06
2022-08-01T23:22:37.519Z,75166.09
2022-08-01T23:25:07.667Z,75166.09
2022-08-01T23:27:51.970Z,75170.16
2022-08-01T23:30:27.621Z,75170.16
2022-08-01T23:32:55.466Z,75172.19
2022-08-01T23:35:22.658Z,75178.28
2022-08-01T23:37:51.324Z,75182.31
2022-08-01T23:40:19.646Z,75180.28
2022-08-01T23:42:46.755Z,75182.31
2022-08-01T23:45:14.175Z,75186.38
2022-08-01T23:47:41.278Z,75182.31
2022-08-01T23:50:08.836Z,75182.31
2022-08-01T23:52:41.293Z,75186.38
2022-08-01T23:55:16.044Z,75188.41
2022-08-01T23:57:43.579Z,75184.34
